Time;durP1;ratioP1;P1;durP2;ratioP2;P2;SDS_P1;SDS_P2;PMS_P1;PMS_P2;Temp;Humidity;BMP_temperature;BMP_pressure;BME280_temperature;BME280_humidity;BME280_pressure;Samples;Min_cycle;Max_cycle;Signal;HPM_P1;HPM_P2
2022/01/26 00:06:15;;;;;;;31.20;14.33;;;5.90;81.50;6.00;97664.00;;;;5056749;28;20196;-86
2022/01/26 00:08:42;;;;;;;26.10;13.30;;;6.00;81.50;6.00;97664.00;;;;5049229;28;20185;-86
2022/01/26 00:11:12;;;;;;;30.17;14.60;;;6.00;81.70;6.00;97657.00;;;;5052864;28;20239;-85
2022/01/26 00:13:39;;;;;;;33.33;14.87;;;6.00;81.50;6.00;97658.00;;;;5053072;28;20197;-86
2022/01/26 00:16:12;;;;;;;30.80;15.77;;;6.00;81.70;6.00;97662.00;;;;5052540;28;20209;-86
2022/01/26 00:18:40;;;;;;;30.67;14.83;;;6.00;81.50;6.00;97658.00;;;;5044374;28;20203;-86
2022/01/26 00:21:13;;;;;;;32.83;15.47;;;6.00;81.50;6.10;97650.00;;;;5032481;28;20225;-86
2022/01/26 00:24:09;;;;;;;33.43;16.13;;;6.10;81.40;6.00;97650.00;;;;5032726;28;20189;-86
2022/01/26 00:26:59;;;;;;;29.87;14.57;;;6.10;81.40;6.00;97651.00;;;;5032972;28;20283;-86
2022/01/26 00:29:25;;;;;;;36.97;15.87;;;6.10;81.30;6.00;97643.00;;;;5032309;28;20635;-86
2022/01/26 00:40:27;;;;;;;33.50;16.07;;;6.10;81.40;6.00;97642.00;;;;5033781;28;20247;-86
2022/01/26 00:42:59;;;;;;;33.27;15.70;;;6.10;81.40;6.00;97637.00;;;;5057572;28;20245;-86
2022/01/26 00:45:33;;;;;;;32.20;15.00;;;6.10;81.40;6.00;97636.00;;;;5062688;28;20204;-86
2022/01/26 00:48:03;;;;;;;30.43;15.30;;;6.10;81.40;6.00;97631.00;;;;5052112;28;20196;-86
2022/01/26 00:50:31;;;;;;;36.13;16.30;;;6.20;81.60;6.00;97633.00;;;;5033981;28;20716;-86
2022/01/26 00:52:59;;;;;;;35.10;16.83;;;6.10;81.60;6.00;97624.00;;;;5037580;28;20677;-86
2022/01/26 00:55:26;;;;;;;33.57;16.77;;;6.10;81.40;6.10;97629.00;;;;5052137;28;20215;-86
2022/01/26 00:57:53;;;;;;;34.77;16.53;;;6.20;81.60;6.10;97626.00;;;;5052525;28;20585;-87
2022/01/26 01:00:24;;;;;;;33.37;16.57;;;6.10;81.40;6.10;97631.00;;;;5052167;28;20566;-86
2022/01/26 01:02:53;;;;;;;37.63;17.00;;;6.10;81.40;6.10;97634.00;;;;5052327;28;20211;-86
2022/01/26 01:05:26;;;;;;;36.97;17.23;;;6.20;81.50;6.10;97625.00;;;;5032382;28;20300;-86
2022/01/26 01:08:01;;;;;;;38.57;17.10;;;6.20;81.40;6.10;97618.00;;;;5032510;28;20194;-86
2022/01/26 01:10:28;;;;;;;35.03;16.00;;;6.20;81.30;6.10;97615.00;;;;5032025;28;20291;-86
2022/01/26 01:12:57;;;;;;;42.00;18.37;;;6.20;81.70;6.20;97623.00;;;;5037669;28;20185;-86
2022/01/26 01:15:26;;;;;;;38.73;17.87;;;6.20;81.60;6.20;97619.00;;;;5038850;28;20612;-86
2022/01/26 01:18:04;;;;;;;37.73;16.67;;;6.20;81.50;6.20;97618.00;;;;5052005;28;20199;-86
2022/01/26 01:20:48;;;;;;;38.47;17.53;;;6.20;81.40;6.20;97615.00;;;;5050610;28;20682;-86
2022/01/26 01:23:41;;;;;;;36.10;16.37;;;6.20;81.70;6.20;97619.00;;;;5052056;28;20272;-86
2022/01/26 01:26:41;;;;;;;37.30;17.13;;;6.30;81.40;6.20;97631.00;;;;5046756;28;20680;-86
2022/01/26 01:29:15;;;;;;;34.40;16.13;;;6.30;81.40;6.20;97623.00;;;;5051590;28;20593;-87
2022/01/26 01:31:50;;;;;;;38.87;18.07;;;6.30;81.50;6.30;97630.00;;;;5061493;28;20224;-86
2022/01/26 01:34:20;;;;;;;41.77;18.50;;;6.30;81.70;6.30;97622.00;;;;5048523;28;20238;-86
2022/01/26 01:36:50;;;;;;;39.87;18.93;;;6.30;81.70;6.30;97625.00;;;;5059588;28;20188;-86
2022/01/26 01:39:20;;;;;;;40.00;18.67;;;6.30;81.50;6.30;97628.00;;;;5057882;28;20196;-86
2022/01/26 01:41:50;;;;;;;41.70;18.57;;;6.30;81.40;6.30;97624.00;;;;5059507;28;20596;-86
2022/01/26 01:44:19;;;;;;;41.70;18.23;;;6.30;81.60;6.30;97629.00;;;;5054188;28;20575;-86
2022/01/26 01:46:48;;;;;;;34.83;15.53;;;6.30;81.60;6.30;97621.00;;;;5058689;28;20192;-86
2022/01/26 01:49:17;;;;;;;41.17;18.37;;;6.30;81.50;6.30;97625.00;;;;5056647;28;20250;-86
2022/01/26 01:51:49;;;;;;;39.70;19.07;;;6.30;81.70;6.30;97612.00;;;;5051782;28;20227;-87
2022/01/26 01:54:18;;;;;;;39.73;18.50;;;6.40;81.70;6.40;97619.00;;;;5047595;28;20663;-86
2022/01/26 01:56:54;;;;;;;39.87;17.40;;;6.40;81.70;6.40;97609.00;;;;5059098;28;20196;-86
2022/01/26 01:59:22;;;;;;;42.17;19.47;;;6.30;81.50;6.40;97613.00;;;;5050041;28;20192;-86
2022/01/26 02:01:49;;;;;;;40.50;19.27;;;6.40;81.40;6.40;97607.00;;;;5049154;28;20229;-86
2022/01/26 02:04:16;;;;;;;40.27;17.93;;;6.40;81.60;6.40;97613.00;;;;5057561;28;20199;-86
2022/01/26 02:06:43;;;;;;;39.57;17.40;;;6.40;81.30;6.40;97609.00;;;;5050223;28;20646;-86
2022/01/26 02:09:11;;;;;;;40.73;19.33;;;6.40;81.50;6.40;97613.00;;;;5051761;28;20197;-86
2022/01/26 02:11:47;;;;;;;44.37;18.77;;;6.50;81.50;6.40;97614.00;;;;5050189;28;20286;-86
2022/01/26 02:14:21;;;;;;;40.43;19.53;;;6.40;81.50;6.40;97598.00;;;;5056056;28;20521;-86
2022/01/26 02:16:53;;;;;;;41.40;18.93;;;6.40;81.50;6.50;97608.00;;;;5063362;28;20192;-86
2022/01/26 02:52:36;;;;;;;42.33;18.67;;;6.50;81.90;6.50;97581.00;;;;5051385;28;20215;-86
2022/01/26 02:55:16;;;;;;;36.13;18.23;;;6.50;81.00;6.50;97585.00;;;;5055583;28;20192;-86
2022/01/26 02:58:03;;;;;;;39.77;18.53;;;6.60;81.10;6.50;97582.00;;;;5049160;28;20219;-86
2022/01/26 03:00:40;;;;;;;39.53;19.07;;;6.60;81.20;6.50;97583.00;;;;5047979;28;20221;-86
2022/01/26 03:03:15;;;;;;;39.87;19.00;;;6.60;81.30;6.50;97576.00;;;;5063406;28;20200;-86
2022/01/26 03:05:49;;;;;;;43.23;19.77;;;6.60;81.20;6.50;97582.00;;;;5045442;28;20232;-86
2022/01/26 03:08:18;;;;;;;42.37;19.73;;;6.60;81.20;6.60;97577.00;;;;5055819;28;20196;-87
2022/01/26 03:10:51;;;;;;;39.60;20.40;;;7.10;81.60;6.60;97575.00;;;;5059989;28;20204;-86
2022/01/26 03:13:22;;;;;;;37.17;18.73;;;6.60;81.30;6.60;97575.00;;;;5056333;28;20192;-86
2022/01/26 03:15:54;;;;;;;41.40;19.03;;;6.60;81.20;6.60;97579.00;;;;5054629;28;20238;-86
2022/01/26 03:21:10;;;;;;;43.97;19.33;;;6.60;81.10;6.60;97573.00;;;;5073868;28;20713;-86
2022/01/26 03:29:15;;;;;;;36.87;18.73;;;6.70;81.10;6.70;97587.00;;;;5039176;28;20200;-86
2022/01/26 03:34:26;;;;;;;40.00;19.50;;;6.70;81.30;6.70;97573.00;;;;5033671;28;20178;-86
2022/01/26 03:36:56;;;;;;;40.00;20.30;;;6.70;80.90;6.70;97578.00;;;;5034170;28;20193;-86
2022/01/26 03:39:25;;;;;;;40.33;18.43;;;6.70;80.90;6.70;97585.00;;;;5036398;28;20201;-86
2022/01/26 03:42:02;;;;;;;36.47;18.87;;;6.70;81.00;6.70;97591.00;;;;5057703;28;20649;-86
2022/01/26 03:44:29;;;;;;;36.30;17.77;;;6.70;80.80;6.70;97583.00;;;;5073419;28;20228;-86
2022/01/26 03:46:56;;;;;;;37.63;18.47;;;6.70;80.60;6.60;97589.00;;;;5073590;28;20196;-86
2022/01/26 03:49:23;;;;;;;38.00;19.50;;;6.70;80.40;6.60;97582.00;;;;5073756;28;20652;-85
2022/01/26 03:51:51;;;;;;;39.17;19.57;;;6.70;80.40;6.50;97580.00;;;;5033667;28;20217;-86
2022/01/26 03:54:20;;;;;;;37.20;18.90;;;6.60;80.40;6.50;97579.00;;;;5033606;28;20197;-86
2022/01/26 03:56:47;;;;;;;35.57;18.40;;;6.60;80.40;6.50;97589.00;;;;5052086;28;20267;-86
2022/01/26 03:59:16;;;;;;;38.47;18.77;;;6.60;80.40;6.50;97585.00;;;;5042799;28;20200;-86
2022/01/26 04:01:43;;;;;;;38.23;18.53;;;6.60;80.50;6.50;97584.00;;;;5053782;28;20220;-86
2022/01/26 04:04:10;;;;;;;39.03;18.80;;;6.60;80.50;6.50;97578.00;;;;5046450;28;20212;-86
2022/01/26 04:06:38;;;;;;;36.90;19.10;;;6.50;80.50;6.50;97579.00;;;;5033217;28;20667;-86
2022/01/26 04:09:09;;;;;;;38.80;19.63;;;6.60;80.70;6.50;97583.00;;;;5033086;28;20208;-86
2022/01/26 04:11:39;;;;;;;37.30;18.53;;;6.60;80.70;6.50;97576.00;;;;5048687;28;20233;-86
2022/01/26 04:14:11;;;;;;;45.90;21.17;;;6.60;80.70;6.50;97586.00;;;;5052914;28;20197;-86
2022/01/26 04:16:42;;;;;;;38.07;19.90;;;6.60;80.40;6.50;97583.00;;;;5035588;28;20236;-86
2022/01/26 04:19:11;;;;;;;40.67;19.03;;;6.60;80.30;6.50;97587.00;;;;5033039;28;20192;-86
2022/01/26 04:24:23;;;;;;;39.27;19.27;;;6.60;80.40;6.50;97577.00;;;;5062648;28;20676;-86
2022/01/26 04:26:55;;;;;;;34.90;17.57;;;6.60;80.60;6.50;97583.00;;;;5040815;28;20192;-86
2022/01/26 04:29:26;;;;;;;34.37;17.73;;;6.60;80.60;6.50;97581.00;;;;5042143;28;20286;-86
2022/01/26 04:31:55;;;;;;;38.30;17.33;;;7.00;80.90;6.50;97580.00;;;;5052327;28;20221;-86
2022/01/26 04:34:22;;;;;;;33.93;18.10;;;6.60;80.50;6.50;97586.00;;;;5052647;28;20197;-86
2022/01/26 04:36:54;;;;;;;34.03;17.10;;;6.60;80.50;6.50;97582.00;;;;5052223;28;20215;-86
2022/01/26 04:39:26;;;;;;;39.33;18.17;;;6.60;80.50;6.40;97583.00;;;;5052409;28;20189;-86
2022/01/26 04:41:57;;;;;;;38.30;18.27;;;6.60;80.00;6.40;97585.00;;;;5052218;28;20228;-86
2022/01/26 04:44:27;;;;;;;35.47;17.20;;;6.50;80.00;6.40;97593.00;;;;5052459;28;20192;-86
2022/01/26 04:46:55;;;;;;;37.63;18.10;;;6.50;80.10;6.40;97584.00;;;;5052456;28;20227;-86
2022/01/26 04:49:23;;;;;;;37.20;18.50;;;6.50;80.20;6.40;97578.00;;;;5052666;28;20231;-85
2022/01/26 04:51:50;;;;;;;34.47;17.47;;;6.50;80.20;6.40;97579.00;;;;5053355;28;20714;-86
2022/01/26 04:54:17;;;;;;;36.77;18.57;;;6.50;80.30;6.40;97573.00;;;;5052223;28;20192;-86
2022/01/26 04:56:44;;;;;;;37.80;18.90;;;6.50;80.70;6.40;97573.00;;;;5052200;28;20663;-86
2022/01/26 04:59:11;;;;;;;40.30;19.57;;;6.50;80.80;6.40;97567.00;;;;5048346;28;20204;-86
2022/01/26 05:04:38;;;;;;;39.50;19.13;;;6.50;80.00;6.40;97567.00;;;;5073567;28;20203;-86
2022/01/26 05:07:05;;;;;;;38.97;18.67;;;6.50;80.40;6.40;97561.00;;;;5061621;28;20197;-86
2022/01/26 05:09:32;;;;;;;39.83;18.20;;;6.50;80.60;6.50;97575.00;;;;5052695;28;20204;-86
2022/01/26 05:12:01;;;;;;;41.40;19.83;;;6.50;80.50;6.50;97565.00;;;;5052112;28;20238;-87
2022/01/26 05:14:28;;;;;;;38.93;19.27;;;6.50;80.40;6.40;97561.00;;;;5052235;28;20624;-86
2022/01/26 05:16:57;;;;;;;37.80;18.73;;;6.50;80.20;6.40;97567.00;;;;5052568;28;20243;-86
2022/01/26 05:19:24;;;;;;;41.57;19.17;;;6.50;80.20;6.40;97564.00;;;;5051273;28;20196;-86
2022/01/26 05:21:51;;;;;;;39.53;19.27;;;6.50;80.60;6.40;97562.00;;;;5059332;28;20754;-86
2022/01/26 05:24:18;;;;;;;45.10;21.10;;;6.50;80.40;6.40;97562.00;;;;5041856;28;20694;-86
2022/01/26 05:26:45;;;;;;;42.07;20.37;;;6.50;80.80;6.40;97564.00;;;;5045489;28;20189;-86
2022/01/26 05:29:12;;;;;;;45.27;21.10;;;6.50;80.60;6.40;97564.00;;;;5052359;28;20200;-86
2022/01/26 05:31:39;;;;;;;46.03;21.13;;;6.50;80.60;6.40;97549.00;;;;5056974;28;20216;-86
2022/01/26 05:34:08;;;;;;;48.03;21.80;;;6.50;80.30;6.40;97551.00;;;;5053577;28;20197;-86
2022/01/26 05:36:35;;;;;;;46.03;21.20;;;6.50;80.60;6.40;97561.00;;;;5042508;28;20204;-86
2022/01/26 05:39:04;;;;;;;44.60;20.63;;;6.50;80.70;6.40;97571.00;;;;5035167;28;20201;-86
2022/01/26 05:41:31;;;;;;;47.47;22.43;;;6.40;80.40;6.40;97573.00;;;;5053881;28;20231;-86
2022/01/26 05:43:58;;;;;;;42.67;21.10;;;6.40;80.60;6.40;97567.00;;;;5062991;28;20196;-86
2022/01/26 05:46:31;;;;;;;43.13;20.97;;;6.60;80.70;6.40;97576.00;;;;5058495;28;20204;-86
2022/01/26 05:48:58;;;;;;;41.90;21.07;;;6.50;80.50;6.40;97574.00;;;;5055189;28;20196;-86
2022/01/26 05:51:31;;;;;;;48.03;21.67;;;6.40;80.50;6.40;97579.00;;;;5038204;28;20225;-85
2022/01/26 05:53:58;;;;;;;44.83;21.30;;;6.40;80.50;6.40;97581.00;;;;5035430;28;20197;-86
2022/01/26 05:56:25;;;;;;;46.00;22.13;;;6.50;80.90;6.40;97572.00;;;;5046144;28;20189;-86
2022/01/26 05:58:52;;;;;;;45.67;20.80;;;6.40;80.70;6.40;97572.00;;;;5050324;28;20203;-86
2022/01/26 06:01:20;;;;;;;48.27;23.10;;;6.40;80.80;6.40;97580.00;;;;5035493;28;20601;-85
2022/01/26 06:03:47;;;;;;;50.47;23.03;;;6.40;80.80;6.40;97573.00;;;;5057877;28;20585;-84
2022/01/26 06:06:16;;;;;;;46.50;22.37;;;6.40;80.80;6.40;97575.00;;;;5066275;28;20199;-85
2022/01/26 06:08:44;;;;;;;44.30;22.17;;;6.40;80.50;6.40;97590.00;;;;5060220;28;20658;-86
2022/01/26 06:13:37;;;;;;;40.23;20.87;;;6.40;80.60;6.40;97588.00;;;;5067110;22;20343;-86
2022/01/26 06:16:04;;;;;;;41.57;20.57;;;6.40;80.70;6.40;97581.00;;;;5070633;28;20259;-86
2022/01/26 06:18:31;;;;;;;42.60;21.47;;;6.40;80.70;6.40;97587.00;;;;5061692;28;20189;-86
2022/01/26 06:20:58;;;;;;;40.63;21.20;;;6.50;80.90;6.40;97578.00;;;;5055321;28;20578;-86
2022/01/26 06:23:26;;;;;;;42.40;22.77;;;6.40;80.80;6.40;97583.00;;;;5053294;28;20213;-86
2022/01/26 06:25:57;;;;;;;39.10;20.87;;;6.40;80.40;6.40;97582.00;;;;5054593;28;20193;-86
2022/01/26 06:28:27;;;;;;;39.27;19.97;;;6.40;80.10;6.30;97579.00;;;;5053124;28;20197;-85
2022/01/26 06:30:59;;;;;;;35.43;18.83;;;6.40;80.10;6.30;97577.00;;;;5034568;28;20201;-86
2022/01/26 06:33:27;;;;;;;36.63;19.00;;;6.40;80.30;6.30;97572.00;;;;5048624;28;20220;-86
2022/01/26 06:35:56;;;;;;;39.47;20.13;;;6.30;80.40;6.30;97567.00;;;;5054095;28;20201;-86
2022/01/26 06:38:24;;;;;;;38.67;20.10;;;6.40;80.50;6.30;97564.00;;;;5050711;28;20197;-86
2022/01/26 06:40:52;;;;;;;42.07;21.63;;;6.40;80.60;6.30;97584.00;;;;5034458;28;20617;-86
2022/01/26 06:43:22;;;;;;;41.97;21.77;;;6.40;80.50;6.30;97574.00;;;;5051391;28;20208;-86
2022/01/26 06:45:52;;;;;;;41.47;20.67;;;6.40;80.70;6.30;97585.00;;;;5053714;28;20254;-86
2022/01/26 06:51:11;;;;;;;44.93;22.33;;;6.40;80.90;6.40;97597.00;;;;5024541;28;20193;-86
2022/01/26 06:53:38;;;;;;;45.03;21.23;;;6.40;80.60;6.40;97594.00;;;;5048891;28;20213;-87
2022/01/26 06:56:05;;;;;;;44.03;21.73;;;6.40;80.70;6.50;97596.00;;;;5033226;28;20248;-88
2022/01/26 06:58:34;;;;;;;47.73;22.57;;;6.40;81.10;6.50;97588.00;;;;5049248;28;20193;-87
2022/01/26 07:01:01;;;;;;;43.57;21.47;;;6.40;81.00;6.50;97592.00;;;;5053624;28;20679;-87
2022/01/26 07:03:28;;;;;;;45.50;22.83;;;6.50;81.00;6.60;97607.00;;;;5039528;28;20217;-88
2022/01/26 07:05:55;;;;;;;50.17;24.10;;;6.40;80.90;6.60;97605.00;;;;5053559;28;20197;-87
2022/01/26 07:08:22;;;;;;;48.43;23.57;;;6.40;81.20;6.60;97597.00;;;;5044197;28;20194;-88
2022/01/26 07:10:51;;;;;;;47.00;23.17;;;6.50;80.80;6.60;97604.00;;;;5053101;28;20195;-87
2022/01/26 07:13:18;;;;;;;50.20;24.83;;;6.50;80.80;6.70;97598.00;;;;5047064;28;20213;-88
2022/01/26 07:21:27;;;;;;;42.97;20.97;;;6.50;80.80;6.70;97621.00;;;;5023038;28;20588;-87
2022/01/26 07:23:55;;;;;;;44.30;21.03;;;6.50;80.70;6.60;97614.00;;;;5052411;28;20240;-87
2022/01/26 07:26:25;;;;;;;43.97;21.93;;;6.50;80.40;6.70;97621.00;;;;5040848;28;20539;-87
2022/01/26 07:28:52;;;;;;;50.07;24.53;;;6.50;80.80;6.70;97620.00;;;;5059324;28;20198;-87
2022/01/26 07:31:21;;;;;;;46.33;21.80;;;6.50;80.80;6.60;97608.00;;;;5063879;28;20655;-88
2022/01/26 07:33:53;;;;;;;44.33;21.43;;;6.50;80.60;6.60;97616.00;;;;5039704;28;20217;-88
2022/01/26 07:36:21;;;;;;;43.43;21.63;;;6.50;80.60;6.60;97610.00;;;;5046181;28;20239;-87
2022/01/26 07:38:50;;;;;;;38.67;19.67;;;6.50;80.40;6.60;97619.00;;;;5053378;28;20670;-88
2022/01/26 07:41:17;;;;;;;43.83;21.13;;;8.10;81.10;6.60;97618.00;;;;5045664;28;20248;-88
2022/01/26 07:43:44;;;;;;;39.53;20.87;;;6.50;80.40;6.60;97628.00;;;;5053197;28;20230;-88
2022/01/26 07:46:11;;;;;;;41.80;21.03;;;7.30;80.60;6.60;97621.00;;;;5048080;28;20200;-87
2022/01/26 07:48:40;;;;;;;43.53;21.23;;;7.30;80.80;6.50;97616.00;;;;5039193;28;20589;-87
2022/01/26 07:51:07;;;;;;;44.13;22.57;;;6.90;80.60;6.60;97617.00;;;;5045560;28;20192;-88
2022/01/26 07:53:34;;;;;;;40.67;21.07;;;6.40;80.60;6.50;97617.00;;;;5037376;28;20308;-87
2022/01/26 07:56:01;;;;;;;40.37;21.53;;;6.60;80.60;6.50;97613.00;;;;5033676;28;20205;-87
2022/01/26 07:58:28;;;;;;;41.13;19.87;;;6.40;80.10;6.50;97613.00;;;;5045891;28;20212;-85
2022/01/26 08:00:55;;;;;;;38.73;19.43;;;6.40;80.20;6.50;97611.00;;;;5050196;28;20205;-89
2022/01/26 08:03:22;;;;;;;39.90;19.77;;;6.40;80.40;6.50;97609.00;;;;5049815;28;20631;-89
2022/01/26 08:05:51;;;;;;;39.63;20.90;;;7.50;81.20;6.40;97608.00;;;;5041573;28;20185;-88
2022/01/26 08:08:18;;;;;;;42.20;21.57;;;6.40;80.50;6.40;97615.00;;;;5052524;28;20196;-89
2022/01/26 08:10:52;;;;;;;39.33;20.73;;;6.40;80.20;6.40;97595.00;;;;5043112;28;20217;-87
2022/01/26 08:13:19;;;;;;;35.20;19.20;;;6.40;80.10;6.40;97600.00;;;;5041768;28;20225;-89
2022/01/26 08:15:46;;;;;;;37.67;19.73;;;6.40;80.10;6.40;97595.00;;;;5052588;28;20571;-89
2022/01/26 08:18:13;;;;;;;36.57;19.80;;;6.40;80.00;6.40;97602.00;;;;5049868;28;20192;-88
2022/01/26 08:20:41;;;;;;;37.63;19.63;;;6.30;79.80;6.40;97603.00;;;;5047995;28;20283;-87
2022/01/26 08:23:09;;;;;;;37.70;18.63;;;6.40;80.10;6.40;97597.00;;;;5048434;28;20307;-88
2022/01/26 08:25:37;;;;;;;36.03;19.10;;;6.50;80.60;6.40;97599.00;;;;5045702;28;20274;-87
2022/01/26 08:28:09;;;;;;;39.10;20.20;;;6.30;80.50;6.40;97597.00;;;;5048965;28;20224;-88
2022/01/26 08:30:37;;;;;;;39.73;20.13;;;6.30;80.60;6.40;97598.00;;;;5048611;28;20197;-88
2022/01/26 08:33:06;;;;;;;33.53;18.00;;;6.50;80.60;6.50;97600.00;;;;5046448;28;20225;-89
2022/01/26 08:35:34;;;;;;;37.57;19.60;;;6.30;80.50;6.50;97581.00;;;;5048108;28;20193;-89
2022/01/26 08:38:04;;;;;;;35.40;18.77;;;6.40;80.10;6.50;97598.00;;;;5048574;28;20621;-89
2022/01/26 08:40:33;;;;;;;35.53;17.97;;;6.40;80.20;6.50;97594.00;;;;5048614;28;20197;-87
2022/01/26 08:43:01;;;;;;;32.53;16.93;;;6.40;80.00;6.50;97600.00;;;;5048548;28;20221;-88
2022/01/26 08:45:28;;;;;;;31.13;15.97;;;6.40;80.10;6.50;97596.00;;;;5047384;28;20205;-87
2022/01/26 08:47:55;;;;;;;30.07;16.17;;;6.40;80.00;6.50;97604.00;;;;5054802;28;20201;-88
2022/01/26 08:50:22;;;;;;;31.93;16.00;;;6.40;80.00;6.50;97604.00;;;;5054023;28;20280;-87
2022/01/26 08:52:50;;;;;;;28.93;15.73;;;6.40;80.00;6.60;97604.00;;;;5048917;28;20220;-88
2022/01/26 08:55:17;;;;;;;31.27;16.67;;;6.40;80.30;6.60;97609.00;;;;5045095;28;20197;-88
2022/01/26 08:57:45;;;;;;;31.90;15.60;;;6.40;80.20;6.60;97606.00;;;;5047852;28;20206;-87
2022/01/26 09:00:14;;;;;;;36.23;17.73;;;6.50;80.20;6.70;97614.00;;;;5043155;28;20229;-88
2022/01/26 09:02:42;;;;;;;29.93;15.67;;;6.50;80.40;6.70;97625.00;;;;5044979;28;20217;-87
2022/01/26 09:05:10;;;;;;;30.80;16.73;;;7.30;80.40;6.70;97613.00;;;;5045600;28;20193;-87
2022/01/26 09:07:43;;;;;;;31.13;16.40;;;6.50;80.00;6.70;97620.00;;;;5047191;28;20291;-88
2022/01/26 09:10:11;;;;;;;29.33;16.07;;;6.50;79.80;6.70;97617.00;;;;5047196;28;20606;-87
2022/01/26 09:12:42;;;;;;;28.23;15.20;;;6.60;80.00;6.70;97610.00;;;;5045150;28;20231;-86
2022/01/26 09:15:12;;;;;;;33.70;17.90;;;6.60;80.30;6.70;97607.00;;;;5047317;28;20230;-87
2022/01/26 09:17:40;;;;;;;29.97;16.53;;;6.60;80.20;6.70;97598.00;;;;5047061;28;20733;-87
2022/01/26 09:20:10;;;;;;;36.83;18.23;;;6.60;79.80;6.70;97598.00;;;;5046812;28;20228;-88
2022/01/26 09:22:38;;;;;;;31.93;18.23;;;6.60;79.80;6.80;97600.00;;;;5044870;28;20226;-89
2022/01/26 09:25:06;;;;;;;30.67;17.23;;;6.50;79.70;6.80;97608.00;;;;5046891;28;20200;-87
2022/01/26 09:27:34;;;;;;;30.37;16.77;;;6.60;79.20;6.70;97625.00;;;;5048128;28;20197;-89
2022/01/26 09:30:01;;;;;;;29.73;16.20;;;6.70;79.20;6.70;97624.00;;;;5045365;28;20570;-88
2022/01/26 09:32:30;;;;;;;32.13;16.43;;;6.60;79.10;6.70;97613.00;;;;5046043;28;20226;-89
2022/01/26 09:34:57;;;;;;;33.70;16.97;;;7.30;79.80;6.80;97625.00;;;;5042991;28;20266;-88
2022/01/26 09:37:24;;;;;;;29.90;17.53;;;6.70;79.80;6.80;97621.00;;;;5040510;28;20193;-88
2022/01/26 09:39:51;;;;;;;30.77;17.57;;;6.70;79.90;6.90;97633.00;;;;5034340;28;20625;-88
2022/01/26 09:42:19;;;;;;;31.17;17.13;;;7.30;80.50;6.90;97637.00;;;;5035422;28;20221;-88
2022/01/26 09:44:46;;;;;;;31.60;17.00;;;6.70;80.00;6.90;97629.00;;;;5042283;28;20267;-89
2022/01/26 09:47:13;;;;;;;30.87;16.00;;;6.80;79.90;7.00;97637.00;;;;5045558;28;20199;-88
2022/01/26 09:49:42;;;;;;;32.00;17.97;;;6.80;79.50;7.00;97623.00;;;;5035560;28;20200;-87
2022/01/26 09:52:20;;;;;;;31.73;16.90;;;6.80;79.90;7.10;97630.00;;;;5047656;28;20889;-87
2022/01/26 09:54:48;;;;;;;28.40;16.83;;;6.80;80.00;7.10;97618.00;;;;5045484;28;20201;-88
2022/01/26 09:57:16;;;;;;;32.10;17.00;;;6.90;79.70;7.10;97623.00;;;;5033482;28;20192;-88
2022/01/26 09:59:43;;;;;;;29.67;16.57;;;6.90;79.60;7.20;97629.00;;;;5041763;28;20659;-88
2022/01/26 10:02:23;;;;;;;34.33;17.70;;;7.00;79.80;7.20;97616.00;;;;5033638;28;20219;-88
2022/01/26 10:05:01;;;;;;;29.87;16.30;;;7.00;79.20;7.30;97621.00;;;;5041036;28;20292;-87
2022/01/26 10:07:42;;;;;;;27.77;15.97;;;7.10;79.50;7.30;97631.00;;;;5046519;28;20224;-87
2022/01/26 10:10:34;;;;;;;29.73;15.77;;;7.10;79.50;7.40;97635.00;;;;5038889;28;20681;-88
2022/01/26 10:16:10;;;;;;;27.80;15.67;;;7.20;79.50;7.40;97630.00;;;;5035388;28;20216;-88
2022/01/26 10:18:37;;;;;;;31.17;15.97;;;7.20;78.20;7.30;97623.00;;;;5039808;28;20225;-87
2022/01/26 10:21:09;;;;;;;28.37;15.30;;;7.20;78.50;7.40;97629.00;;;;5044220;28;20281;-88
2022/01/26 10:23:40;;;;;;;26.47;15.00;;;7.20;79.00;7.40;97616.00;;;;5053564;28;20307;-90
2022/01/26 10:26:11;;;;;;;28.30;16.40;;;7.30;78.90;7.40;97635.00;;;;5060015;28;20215;-91
2022/01/26 10:28:48;;;;;;;31.40;17.13;;;7.30;78.70;7.50;97631.00;;;;5051129;28;20311;-90
2022/01/26 10:31:18;;;;;;;29.93;16.13;;;7.30;78.40;7.60;97627.00;;;;5047949;28;20189;-90
2022/01/26 10:33:58;;;;;;;27.83;16.23;;;8.30;79.20;7.60;97628.00;;;;5044593;28;20217;-89
2022/01/26 10:36:34;;;;;;;26.57;15.57;;;7.60;78.60;7.70;97601.00;;;;5050597;28;20231;-91
2022/01/26 10:39:05;;;;;;;26.90;15.20;;;7.70;79.30;7.70;97609.00;;;;5041494;28;20281;-91
2022/01/26 10:41:32;;;;;;;28.80;16.37;;;8.40;79.40;7.80;97609.00;;;;5037117;28;20193;-91
2022/01/26 10:44:01;;;;;;;35.87;17.57;;;7.50;78.90;7.80;97595.00;;;;5049741;28;20311;-89
2022/01/26 10:46:32;;;;;;;26.97;15.93;;;7.60;79.40;7.90;97588.00;;;;5047963;28;20201;-91
2022/01/26 10:49:15;;;;;;;26.87;16.60;;;7.70;78.60;7.90;97610.00;;;;5044220;28;20204;-90
2022/01/26 10:52:00;;;;;;;26.73;16.17;;;7.60;78.30;8.00;97586.00;;;;5064514;28;20544;-90
2022/01/26 10:54:37;;;;;;;26.90;15.13;;;7.70;78.20;8.00;97584.00;;;;5047448;28;20203;-91
2022/01/26 10:57:06;;;;;;;29.40;16.03;;;7.90;78.70;8.10;97570.00;;;;5044681;28;20276;-91
2022/01/26 10:59:35;;;;;;;29.13;17.40;;;7.80;79.10;8.20;97566.00;;;;5043883;28;20754;-90
2022/01/26 11:02:05;;;;;;;27.20;15.63;;;7.90;79.00;8.20;97564.00;;;;5046169;28;20228;-91
2022/01/26 11:04:34;;;;;;;28.90;16.90;;;7.90;78.60;8.30;97577.00;;;;5034684;28;20221;-91
2022/01/26 11:07:06;;;;;;;30.50;17.57;;;8.00;79.00;8.30;97574.00;;;;5054870;28;20196;-90
2022/01/26 11:09:36;;;;;;;28.00;16.40;;;8.00;78.90;8.40;97567.00;;;;5064544;28;20207;-91
2022/01/26 11:12:07;;;;;;;30.00;17.63;;;8.00;78.50;8.40;97564.00;;;;5042841;28;20622;-90
2022/01/26 11:14:43;;;;;;;27.97;16.87;;;8.10;77.90;8.40;97565.00;;;;5034578;28;20272;-90
2022/01/26 11:17:23;;;;;;;27.07;15.97;;;8.10;77.90;8.50;97561.00;;;;5043862;28;20196;-91
2022/01/26 11:19:50;;;;;;;33.10;18.60;;;8.10;78.20;8.50;97554.00;;;;5049426;28;20196;-90
2022/01/26 11:22:25;;;;;;;29.20;16.67;;;8.20;78.80;8.60;97555.00;;;;5056502;28;20213;-91
2022/01/26 11:24:53;;;;;;;31.13;17.40;;;8.20;78.20;8.60;97550.00;;;;5037018;28;20233;-91
2022/01/26 11:27:21;;;;;;;30.90;17.47;;;8.90;78.60;8.60;97561.00;;;;5044129;28;20565;-90
2022/01/26 11:29:54;;;;;;;33.93;18.77;;;8.20;77.90;8.60;97559.00;;;;5041655;28;20198;-91
2022/01/26 11:32:28;;;;;;;33.23;19.30;;;8.30;78.20;8.60;97570.00;;;;5037768;28;20216;-92
2022/01/26 11:34:57;;;;;;;33.50;17.53;;;8.30;77.80;8.60;97560.00;;;;5057933;28;20185;-90
2022/01/26 11:37:39;;;;;;;30.63;17.83;;;8.30;77.60;8.60;97574.00;;;;5043946;28;20193;-91
2022/01/26 11:45:36;;;;;;;32.03;17.33;;;8.40;77.90;8.70;97562.00;;;;5053580;28;20193;-91
2022/01/26 11:48:09;;;;;;;32.60;17.33;;;8.40;78.10;8.70;97575.00;;;;5059830;28;20268;-91
2022/01/26 11:50:39;;;;;;;31.73;17.90;;;8.40;77.30;8.70;97580.00;;;;5033319;28;20197;-90
2022/01/26 11:53:10;;;;;;;30.37;16.87;;;8.40;77.10;8.70;97574.00;;;;5041849;28;20307;-91
2022/01/26 11:55:42;;;;;;;30.53;16.77;;;8.50;76.90;8.70;97587.00;;;;5045191;28;20194;-91
2022/01/26 11:58:14;;;;;;;28.40;16.27;;;8.40;77.10;8.70;97587.00;;;;5040532;28;20280;-90
2022/01/26 12:00:53;;;;;;;29.60;16.93;;;8.50;77.00;8.70;97584.00;;;;5048318;28;20664;-91
2022/01/26 12:05:50;;;;;;;29.73;17.63;;;8.40;76.40;8.60;97593.00;;;;5070996;28;20204;-84
2022/01/26 12:08:39;;;;;;;33.00;16.87;;;8.40;76.10;8.60;97594.00;;;;5073471;28;20226;-84
2022/01/26 12:11:10;;;;;;;29.63;16.83;;;8.40;75.80;8.50;97571.00;;;;5073017;28;20219;-85
2022/01/26 12:13:41;;;;;;;34.53;18.50;;;8.40;76.30;8.50;97590.00;;;;5061044;28;20283;-86
2022/01/26 12:16:14;;;;;;;33.03;18.17;;;8.40;76.50;8.50;97572.00;;;;5061994;28;20204;-87
2022/01/26 12:18:50;;;;;;;31.70;17.77;;;9.30;77.50;8.50;97580.00;;;;5066975;28;20199;-85
2022/01/26 12:35:54;;;;;;;27.43;16.57;;;8.30;76.30;8.50;97570.00;;;;5136024;27;20612;-84
2022/01/26 12:38:33;;;;;;;28.93;16.47;;;7.80;76.10;8.50;97556.00;;;;5089200;28;20211;-85
2022/01/26 12:43:58;;;;;;;28.50;17.57;;;8.30;77.10;8.50;97540.00;;;;5087960;28;20191;-85
2022/01/26 12:46:37;;;;;;;31.50;17.50;;;8.30;77.00;8.50;97540.00;;;;5096967;28;20722;-83
2022/01/26 12:49:10;;;;;;;31.33;17.57;;;8.30;76.50;8.50;97536.00;;;;5133164;27;20285;-85
2022/01/26 12:51:45;;;;;;;32.67;18.77;;;8.30;77.20;8.50;97533.00;;;;5109352;28;20242;-86